^^
Station Historical Data
Daily Summary for Nil La, TWC- Units:  Both    English   Metric
« Previous Day
Next Day »
Daily Weekly Monthly Yearly Custom
  High: Low: Average:
Temperature: TemperatureF °F /  -17.8 °C 63.7 °F /  17.6 °C 80.5 °F /  26.9 °C
Dew Point: DewpointF °F /  -17.8 °C 16.7 °F /  -8.5 °C 21.5 °F /  -5.8 °C
Humidity: Humidity% 7% 12%
Wind Speed: WindSpeedMPHmph /  0km/h - 2mph /  3.2km/h
Wind Gust: WindSpeedGustMPHmph /  0km/h - -
Wind- - SE
Pressure: PressureIn in /  0 hPa 29.67 in /  1004.6 hPa -
Precipitation: 0.00 in /  0 mm    
Historical Graphs
 
 
Tabular Data for Nil La, TWC-
Time Temperature Dew Point Pressure Wind Wind Speed Wind Gust Humidity Rainfall Rate (Hourly) solar Conditions
TemperatureF °F /  -17.8 °C DewpointF °F /  -17.8 °C PressureInin /  0hPa Calm     Humidity% HourlyPrecipInin /  0mm SolarRadiationWatts/m^2 W/m2 Conditions
00:04 76.3 °F /  24.6 °C 18.0 °F /  -7.8 °C 29.78in /  1008.4hPa Calm     11% 0.00in /  0mm 0.00 W/m2
00:09 75.9 °F /  24.4 °C 17.6 °F /  -8 °C 29.78in /  1008.4hPa Calm   6.0mph /  9.7km/h 11% 0.00in /  0mm 0.00 W/m2
00:14 75.9 °F /  24.4 °C 17.6 °F /  -8 °C 29.78in /  1008.4hPa SSE 0.9mph /  1.4km/h 3.0mph /  4.8km/h 11% 0.00in /  0mm 0.00 W/m2
00:19 75.7 °F /  24.3 °C 17.4 °F /  -8.1 °C 29.78in /  1008.4hPa Calm   4.0mph /  6.4km/h 11% 0.00in /  0mm 0.00 W/m2
00:24 75.6 °F /  24.2 °C 17.4 °F /  -8.1 °C 29.78in /  1008.4hPa Calm   2.0mph /  3.2km/h 11% 0.00in /  0mm 0.00 W/m2
00:29 75.4 °F /  24.1 °C 19.2 °F /  -7.1 °C 29.78in /  1008.4hPa Calm   1.0mph /  1.6km/h 12% 0.00in /  0mm 0.00 W/m2
00:34 75.0 °F /  23.9 °C 19.0 °F /  -7.2 °C 29.78in /  1008.4hPa NNE 0.9mph /  1.4km/h 1.0mph /  1.6km/h 12% 0.00in /  0mm 0.00 W/m2
00:38 74.8 °F /  23.8 °C 18.9 °F /  -7.3 °C 29.78in /  1008.4hPa Calm   1.0mph /  1.6km/h 12% 0.00in /  0mm 0.00 W/m2
00:44 74.5 °F /  23.6 °C 18.5 °F /  -7.5 °C 29.78in /  1008.4hPa Calm   2.0mph /  3.2km/h 12% 0.00in /  0mm 0.00 W/m2
00:49 74.3 °F /  23.5 °C 20.3 °F /  -6.5 °C 29.78in /  1008.4hPa Calm   5.0mph /  8km/h 13% 0.00in /  0mm 0.00 W/m2
00:54 74.1 °F /  23.4 °C 18.3 °F /  -7.6 °C 29.78in /  1008.4hPa South 0.9mph /  1.4km/h 5.0mph /  8km/h 12% 0.00in /  0mm 0.00 W/m2
00:59 74.3 °F /  23.5 °C 18.3 °F /  -7.6 °C 29.77in /  1008hPa SE 0.9mph /  1.4km/h 5.0mph /  8km/h 12% 0.00in /  0mm 0.00 W/m2
01:04 74.5 °F /  23.6 °C 18.5 °F /  -7.5 °C 29.77in /  1008hPa SE 4.0mph /  6.4km/h 4.0mph /  6.4km/h 12% 0.00in /  0mm 0.00 W/m2
01:09 74.5 °F /  23.6 °C 18.5 °F /  -7.5 °C 29.78in /  1008.4hPa SE 0.9mph /  1.4km/h 7.0mph /  11.3km/h 12% 0.00in /  0mm 0.00 W/m2
01:14 74.7 °F /  23.7 °C 18.7 °F /  -7.4 °C 29.77in /  1008hPa Calm   6.0mph /  9.7km/h 12% 0.00in /  0mm 0.00 W/m2
01:19 74.7 °F /  23.7 °C 18.7 °F /  -7.4 °C 29.77in /  1008hPa SE 0.9mph /  1.4km/h 2.0mph /  3.2km/h 12% 0.00in /  0mm 0.00 W/m2
01:24 74.5 °F /  23.6 °C 18.5 °F /  -7.5 °C 29.77in /  1008hPa Calm   1.0mph /  1.6km/h 12% 0.00in /  0mm 0.00 W/m2
01:29 74.3 °F /  23.5 °C 18.3 °F /  -7.6 °C 29.78in /  1008.4hPa SE 2.0mph /  3.2km/h 3.0mph /  4.8km/h 12% 0.00in /  0mm 0.00 W/m2
01:34 74.1 °F /  23.4 °C 18.3 °F /  -7.6 °C 29.77in /  1008hPa SE 2.0mph /  3.2km/h 6.0mph /  9.7km/h 12% 0.00in /  0mm 0.00 W/m2
01:39 74.5 °F /  23.6 °C 18.5 °F /  -7.5 °C 29.77in /  1008hPa SE 2.9mph /  4.7km/h 5.0mph /  8km/h 12% 0.00in /  0mm 0.00 W/m2
01:44 74.7 °F /  23.7 °C 16.7 °F /  -8.5 °C 29.77in /  1008hPa SE 6.9mph /  11.1km/h 10.0mph /  16.1km/h 11% 0.00in /  0mm 0.00 W/m2
01:49 75.0 °F /  23.9 °C 16.9 °F /  -8.4 °C 29.77in /  1008hPa SE 4.0mph /  6.4km/h 7.0mph /  11.3km/h 11% 0.00in /  0mm 0.00 W/m2
01:54 75.2 °F /  24 °C 17.1 °F /  -8.3 °C 29.77in /  1008hPa SSE 6.9mph /  11.1km/h 7.0mph /  11.3km/h 11% 0.00in /  0mm 0.00 W/m2
01:59 75.0 °F /  23.9 °C 16.9 °F /  -8.4 °C 29.76in /  1007.7hPa SSE 2.0mph /  3.2km/h 6.0mph /  9.7km/h 11% 0.00in /  0mm 0.00 W/m2
02:04 75.0 °F /  23.9 °C 16.9 °F /  -8.4 °C 29.77in /  1008hPa SE 2.0mph /  3.2km/h 8.0mph /  12.9km/h 11% 0.00in /  0mm 0.00 W/m2
02:09 74.8 °F /  23.8 °C 16.9 °F /  -8.4 °C 29.76in /  1007.7hPa Calm   6.0mph /  9.7km/h 11% 0.00in /  0mm 0.00 W/m2
02:14 74.8 °F /  23.8 °C 16.9 °F /  -8.4 °C 29.76in /  1007.7hPa SSE 6.0mph /  9.7km/h 6.0mph /  9.7km/h 11% 0.00in /  0mm 0.00 W/m2
02:19 75.0 °F /  23.9 °C 16.9 °F /  -8.4 °C 29.76in /  1007.7hPa SSE 2.9mph /  4.7km/h 4.0mph /  6.4km/h 11% 0.00in /  0mm 0.00 W/m2
02:24 74.8 °F /  23.8 °C 16.9 °F /  -8.4 °C 29.76in /  1007.7hPa SSE 2.9mph /  4.7km/h 5.0mph /  8km/h 11% 0.00in /  0mm 0.00 W/m2
02:29 74.8 °F /  23.8 °C 18.9 °F /  -7.3 °C 29.76in /  1007.7hPa SE 4.0mph /  6.4km/h 7.0mph /  11.3km/h 12% 0.00in /  0mm 0.00 W/m2
02:34 74.8 °F /  23.8 °C 16.9 °F /  -8.4 °C 29.76in /  1007.7hPa SE 6.0mph /  9.7km/h 9.0mph /  14.5km/h 11% 0.00in /  0mm 0.00 W/m2
02:39 75.0 °F /  23.9 °C 16.9 °F /  -8.4 °C 29.76in /  1007.7hPa Calm   6.0mph /  9.7km/h 11% 0.00in /  0mm 0.00 W/m2
02:44 75.0 °F /  23.9 °C 19.0 °F /  -7.2 °C 29.76in /  1007.7hPa SSE 0.9mph /  1.4km/h 4.0mph /  6.4km/h 12% 0.00in /  0mm 0.00 W/m2
02:49 75.0 °F /  23.9 °C 19.0 °F /  -7.2 °C 29.76in /  1007.7hPa NE 0.9mph /  1.4km/h 2.0mph /  3.2km/h 12% 0.00in /  0mm 0.00 W/m2
02:54 74.8 °F /  23.8 °C 18.9 °F /  -7.3 °C 29.76in /  1007.7hPa Calm     12% 0.00in /  0mm 0.00 W/m2
02:59 74.7 °F /  23.7 °C 18.7 °F /  -7.4 °C 29.76in /  1007.7hPa Calm     12% 0.00in /  0mm 0.00 W/m2
03:04 74.1 °F /  23.4 °C 18.3 °F /  -7.6 °C 29.76in /  1007.7hPa Calm   3.0mph /  4.8km/h 12% 0.00in /  0mm 0.00 W/m2
03:09 73.8 °F /  23.2 °C 19.8 °F /  -6.8 °C 29.76in /  1007.7hPa Calm     13% 0.00in /  0mm 0.00 W/m2
03:14 73.0 °F /  22.8 °C 19.2 °F /  -7.1 °C 29.76in /  1007.7hPa Calm   1.0mph /  1.6km/h 13% 0.00in /  0mm 0.00 W/m2
03:19 72.7 °F /  22.6 °C 19.0 °F /  -7.2 °C 29.76in /  1007.7hPa Calm   1.0mph /  1.6km/h 13% 0.00in /  0mm 0.00 W/m2
03:24 72.0 °F /  22.2 °C 20.1 °F /  -6.6 °C 29.76in /  1007.7hPa Calm     14% 0.00in /  0mm 0.00 W/m2
03:29 71.4 °F /  21.9 °C 18.0 °F /  -7.8 °C 29.76in /  1007.7hPa Calm     13% 0.00in /  0mm 0.00 W/m2
03:34 71.1 °F /  21.7 °C 19.4 °F /  -7 °C 29.76in /  1007.7hPa NE 2.0mph /  3.2km/h 2.0mph /  3.2km/h 14% 0.00in /  0mm 0.00 W/m2
03:39 70.5 °F /  21.4 °C 19.0 °F /  -7.2 °C 29.76in /  1007.7hPa Calm   1.0mph /  1.6km/h 14% 0.00in /  0mm 0.00 W/m2
03:44 70.2 °F /  21.2 °C 18.7 °F /  -7.4 °C 29.76in /  1007.7hPa Calm   3.0mph /  4.8km/h 14% 0.00in /  0mm 0.00 W/m2
03:49 70.0 °F /  21.1 °C 18.5 °F /  -7.5 °C 29.77in /  1008hPa Calm   1.0mph /  1.6km/h 14% 0.00in /  0mm 0.00 W/m2
03:54 69.6 °F /  20.9 °C 19.9 °F /  -6.7 °C 29.77in /  1008hPa ENE 0.9mph /  1.4km/h 4.0mph /  6.4km/h 15% 0.00in /  0mm 0.00 W/m2
03:59 69.3 °F /  20.7 °C 19.6 °F /  -6.9 °C 29.77in /  1008hPa Calm   2.0mph /  3.2km/h 15% 0.00in /  0mm 0.00 W/m2
04:04 69.1 °F /  20.6 °C 19.4 °F /  -7 °C 29.77in /  1008hPa Calm   3.0mph /  4.8km/h 15% 0.00in /  0mm 0.00 W/m2
04:09 68.7 °F /  20.4 °C 19.2 °F /  -7.1 °C 29.77in /  1008hPa Calm   4.0mph /  6.4km/h 15% 0.00in /  0mm 0.00 W/m2
04:14 68.7 °F /  20.4 °C 19.2 °F /  -7.1 °C 29.78in /  1008.4hPa ENE 0.9mph /  1.4km/h 4.0mph /  6.4km/h 15% 0.00in /  0mm 0.00 W/m2
04:19 68.4 °F /  20.2 °C 18.9 °F /  -7.3 °C 29.78in /  1008.4hPa Calm   4.0mph /  6.4km/h 15% 0.00in /  0mm 0.00 W/m2
04:24 68.2 °F /  20.1 °C 18.7 °F /  -7.4 °C 29.78in /  1008.4hPa ENE 0.9mph /  1.4km/h 3.0mph /  4.8km/h 15% 0.00in /  0mm 0.00 W/m2
04:29 68.0 °F /  20 °C 18.7 °F /  -7.4 °C 29.78in /  1008.4hPa NE 2.9mph /  4.7km/h 5.0mph /  8km/h 15% 0.00in /  0mm 0.00 W/m2
04:34 67.8 °F /  19.9 °C 19.9 °F /  -6.7 °C 29.78in /  1008.4hPa NE 2.9mph /  4.7km/h 4.0mph /  6.4km/h 16% 0.00in /  0mm 0.00 W/m2
04:39 67.6 °F /  19.8 °C 19.8 °F /  -6.8 °C 29.79in /  1008.7hPa NE 2.0mph /  3.2km/h 3.0mph /  4.8km/h 16% 0.00in /  0mm 0.00 W/m2
04:44 67.5 °F /  19.7 °C 19.8 °F /  -6.8 °C 29.79in /  1008.7hPa NE 2.9mph /  4.7km/h 4.0mph /  6.4km/h 16% 0.00in /  0mm 0.00 W/m2
04:49 67.3 °F /  19.6 °C 19.6 °F /  -6.9 °C 29.79in /  1008.7hPa Calm   3.0mph /  4.8km/h 16% 0.00in /  0mm 0.00 W/m2
04:54 66.9 °F /  19.4 °C 19.2 °F /  -7.1 °C 29.79in /  1008.7hPa ENE 0.9mph /  1.4km/h 4.0mph /  6.4km/h 16% 0.00in /  0mm 0.00 W/m2
04:59 66.7 °F /  19.3 °C 19.0 °F /  -7.2 °C 29.79in /  1008.7hPa ENE 2.9mph /  4.7km/h 4.0mph /  6.4km/h 16% 0.00in /  0mm 0.00 W/m2
05:04 66.6 °F /  19.2 °C 19.0 °F /  -7.2 °C 29.79in /  1008.7hPa NE 0.9mph /  1.4km/h 4.0mph /  6.4km/h 16% 0.00in /  0mm 0.00 W/m2
05:09 66.4 °F /  19.1 °C 18.9 °F /  -7.3 °C 29.79in /  1008.7hPa ENE 0.9mph /  1.4km/h 5.0mph /  8km/h 16% 0.00in /  0mm 0.00 W/m2
05:14 66.2 °F /  19 °C 18.7 °F /  -7.4 °C 29.79in /  1008.7hPa East 2.0mph /  3.2km/h 3.0mph /  4.8km/h 16% 0.00in /  0mm 0.00 W/m2
05:19 66.0 °F /  18.9 °C 18.5 °F /  -7.5 °C 29.79in /  1008.7hPa Calm   2.0mph /  3.2km/h 16% 0.00in /  0mm 0.00 W/m2
05:24 65.8 °F /  18.8 °C 18.3 °F /  -7.6 °C 29.79in /  1008.7hPa ENE 0.9mph /  1.4km/h 3.0mph /  4.8km/h 16% 0.00in /  0mm 0.00 W/m2
05:29 65.7 °F /  18.7 °C 18.3 °F /  -7.6 °C 29.80in /  1009hPa Calm   2.0mph /  3.2km/h 16% 0.00in /  0mm 0.00 W/m2
05:34 65.5 °F /  18.6 °C 18.1 °F /  -7.7 °C 29.80in /  1009hPa Calm   2.0mph /  3.2km/h 16% 0.00in /  0mm 0.00 W/m2
05:38 65.3 °F /  18.5 °C 19.4 °F /  -7 °C 29.80in /  1009hPa ENE 0.9mph /  1.4km/h 3.0mph /  4.8km/h 17% 0.00in /  0mm 0.00 W/m2
05:44 65.1 °F /  18.4 °C 19.2 °F /  -7.1 °C 29.80in /  1009hPa Calm   1.0mph /  1.6km/h 17% 0.00in /  0mm 0.00 W/m2
05:49 64.9 °F /  18.3 °C 19.0 °F /  -7.2 °C 29.80in /  1009hPa Calm   1.0mph /  1.6km/h 17% 0.00in /  0mm 0.00 W/m2
05:54 64.8 °F /  18.2 °C 18.9 °F /  -7.3 °C 29.80in /  1009hPa Calm     17% 0.00in /  0mm 0.00 W/m2
05:59 64.4 °F /  18 °C 18.7 °F /  -7.4 °C 29.80in /  1009hPa Calm   1.0mph /  1.6km/h 17% 0.00in /  0mm 0.00 W/m2
06:04 64.2 °F /  17.9 °C 19.8 °F /  -6.8 °C 29.80in /  1009hPa Calm   1.0mph /  1.6km/h 18% 0.00in /  0mm 5.00 W/m2
06:08 64.0 °F /  17.8 °C 19.6 °F /  -6.9 °C 29.80in /  1009hPa Calm   1.0mph /  1.6km/h 18% 0.00in /  0mm 7.00 W/m2
06:14 63.9 °F /  17.7 °C 19.6 °F /  -6.9 °C 29.80in /  1009hPa Calm     18% 0.00in /  0mm 9.00 W/m2
06:19 63.7 °F /  17.6 °C 19.4 °F /  -7 °C 29.80in /  1009hPa ENE 2.0mph /  3.2km/h 2.0mph /  3.2km/h 18% 0.00in /  0mm 12.00 W/m2
06:24 63.7 °F /  17.6 °C 20.7 °F /  -6.3 °C 29.81in /  1009.4hPa Calm   2.0mph /  3.2km/h 19% 0.00in /  0mm 16.00 W/m2
06:29 63.7 °F /  17.6 °C 20.7 °F /  -6.3 °C 29.81in /  1009.4hPa Calm   1.0mph /  1.6km/h 19% 0.00in /  0mm 18.00 W/m2
06:34 63.7 °F /  17.6 °C 20.7 °F /  -6.3 °C 29.81in /  1009.4hPa Calm     19% 0.00in /  0mm 21.00 W/m2
06:39 63.7 °F /  17.6 °C 20.7 °F /  -6.3 °C 29.81in /  1009.4hPa Calm     19% 0.00in /  0mm 23.00 W/m2
06:44 63.7 °F /  17.6 °C 21.9 °F /  -5.6 °C 29.81in /  1009.4hPa Calm     20% 0.00in /  0mm 25.00 W/m2
06:48 63.7 °F /  17.6 °C 24.1 °F /  -4.4 °C 29.81in /  1009.4hPa Calm     22% 0.00in /  0mm 26.00 W/m2
06:54 63.7 °F /  17.6 °C 27.1 °F /  -2.7 °C 29.82in /  1009.7hPa Calm     25% 0.00in /  0mm 28.00 W/m2
06:59 63.9 °F /  17.7 °C 24.3 °F /  -4.3 °C 29.82in /  1009.7hPa Calm     22% 0.00in /  0mm 32.00 W/m2
07:04 63.9 °F /  17.7 °C 28.2 °F /  -2.1 °C 29.82in /  1009.7hPa Calm     26% 0.00in /  0mm 33.00 W/m2
07:09 64.0 °F /  17.8 °C 26.6 °F /  -3 °C 29.82in /  1009.7hPa Calm   1.0mph /  1.6km/h 24% 0.00in /  0mm 35.00 W/m2
07:14 64.6 °F /  18.1 °C 24.8 °F /  -4 °C 29.82in /  1009.7hPa Calm     22% 0.00in /  0mm 37.00 W/m2
07:19 65.1 °F /  18.4 °C 26.4 °F /  -3.1 °C 29.82in /  1009.7hPa Calm     23% 0.00in /  0mm 42.00 W/m2
07:24 65.5 °F /  18.6 °C 25.7 °F /  -3.5 °C 29.82in /  1009.7hPa Calm   2.0mph /  3.2km/h 22% 0.00in /  0mm 47.00 W/m2
07:29 66.4 °F /  19.1 °C 26.4 °F /  -3.1 °C 29.82in /  1009.7hPa Calm   4.0mph /  6.4km/h 22% 0.00in /  0mm 47.00 W/m2
07:34 67.5 °F /  19.7 °C 26.2 °F /  -3.2 °C 29.82in /  1009.7hPa Calm   2.0mph /  3.2km/h 21% 0.00in /  0mm 114.00 W/m2
07:38 68.4 °F /  20.2 °C 24.4 °F /  -4.2 °C 29.82in /  1009.7hPa ESE 2.0mph /  3.2km/h 4.0mph /  6.4km/h 19% 0.00in /  0mm 325.00 W/m2
07:44 69.4 °F /  20.8 °C 24.1 °F /  -4.4 °C 29.82in /  1009.7hPa Calm   5.0mph /  8km/h 18% 0.00in /  0mm 346.00 W/m2
07:49 70.5 °F /  21.4 °C 23.5 °F /  -4.7 °C 29.82in /  1009.7hPa ENE 0.9mph /  1.4km/h 2.0mph /  3.2km/h 17% 0.00in /  0mm 364.00 W/m2
07:54 71.6 °F /  22 °C 25.9 °F /  -3.4 °C 29.83in /  1010hPa NE 0.9mph /  1.4km/h 1.0mph /  1.6km/h 18% 0.00in /  0mm 385.00 W/m2
07:59 72.3 °F /  22.4 °C 25.0 °F /  -3.9 °C 29.82in /  1009.7hPa NE 2.0mph /  3.2km/h 4.0mph /  6.4km/h 17% 0.00in /  0mm 404.00 W/m2
08:04 73.6 °F /  23.1 °C 24.6 °F /  -4.1 °C 29.82in /  1009.7hPa Calm   3.0mph /  4.8km/h 16% 0.00in /  0mm 429.00 W/m2
08:09 74.8 °F /  23.8 °C 24.1 °F /  -4.4 °C 29.83in /  1010hPa Calm   6.0mph /  9.7km/h 15% 0.00in /  0mm 445.00 W/m2
08:14 75.9 °F /  24.4 °C 23.4 °F /  -4.8 °C 29.83in /  1010hPa North 0.9mph /  1.4km/h 4.0mph /  6.4km/h 14% 0.00in /  0mm 469.00 W/m2
08:19 77.4 °F /  25.2 °C 22.6 °F /  -5.2 °C 29.82in /  1009.7hPa NNE 2.0mph /  3.2km/h 8.0mph /  12.9km/h 13% 0.00in /  0mm 487.00 W/m2
08:23 78.1 °F /  25.6 °C 23.2 °F /  -4.9 °C 29.82in /  1009.7hPa NNW 4.0mph /  6.4km/h 4.0mph /  6.4km/h 13% 0.00in /  0mm 504.00 W/m2
08:29 79.2 °F /  26.2 °C 22.1 °F /  -5.5 °C 29.82in /  1009.7hPa NNW 2.9mph /  4.7km/h 8.0mph /  12.9km/h 12% 0.00in /  0mm 522.00 W/m2
08:34 79.9 °F /  26.6 °C 22.8 °F /  -5.1 °C 29.82in /  1009.7hPa NE 2.0mph /  3.2km/h 9.0mph /  14.5km/h 12% 0.00in /  0mm 543.00 W/m2
08:39 80.4 °F /  26.9 °C 23.2 °F /  -4.9 °C 29.82in /  1009.7hPa NNW 2.9mph /  4.7km/h 5.0mph /  8km/h 12% 0.00in /  0mm 563.00 W/m2
08:44 81.1 °F /  27.3 °C 21.6 °F /  -5.8 °C 29.82in /  1009.7hPa NNE 4.9mph /  7.9km/h 6.0mph /  9.7km/h 11% 0.00in /  0mm 580.00 W/m2
08:49 81.7 °F /  27.6 °C 22.1 °F /  -5.5 °C 29.82in /  1009.7hPa North 8.1mph /  13km/h 13.0mph /  20.9km/h 11% 0.00in /  0mm 599.00 W/m2
08:54 82.0 °F /  27.8 °C 22.3 °F /  -5.4 °C 29.82in /  1009.7hPa NNW 4.9mph /  7.9km/h 9.0mph /  14.5km/h 11% 0.00in /  0mm 619.00 W/m2
08:59 82.2 °F /  27.9 °C 22.5 °F /  -5.3 °C 29.82in /  1009.7hPa East 0.9mph /  1.4km/h 6.0mph /  9.7km/h 11% 0.00in /  0mm 636.00 W/m2
09:04 82.6 °F /  28.1 °C 22.8 °F /  -5.1 °C 29.82in /  1009.7hPa ENE 2.0mph /  3.2km/h 8.0mph /  12.9km/h 11% 0.00in /  0mm 652.00 W/m2
09:08 83.1 °F /  28.4 °C 23.2 °F /  -4.9 °C 29.82in /  1009.7hPa East 6.9mph /  11.1km/h 11.0mph /  17.7km/h 11% 0.00in /  0mm 670.00 W/m2
09:14 83.5 °F /  28.6 °C 23.4 °F /  -4.8 °C 29.82in /  1009.7hPa East 6.9mph /  11.1km/h 7.0mph /  11.3km/h 11% 0.00in /  0mm 687.00 W/m2
09:19 83.8 °F /  28.8 °C 23.7 °F /  -4.6 °C 29.82in /  1009.7hPa NE 2.0mph /  3.2km/h 11.0mph /  17.7km/h 11% 0.00in /  0mm 701.00 W/m2
09:24 84.0 °F /  28.9 °C 23.9 °F /  -4.5 °C 29.82in /  1009.7hPa NE 6.0mph /  9.7km/h 11.0mph /  17.7km/h 11% 0.00in /  0mm 719.00 W/m2
09:29 84.4 °F /  29.1 °C 24.1 °F /  -4.4 °C 29.82in /  1009.7hPa North 4.0mph /  6.4km/h 7.0mph /  11.3km/h 11% 0.00in /  0mm 737.00 W/m2
09:34 84.7 °F /  29.3 °C 24.4 °F /  -4.2 °C 29.81in /  1009.4hPa NNW 6.0mph /  9.7km/h 7.0mph /  11.3km/h 11% 0.00in /  0mm 751.00 W/m2
09:39 85.1 °F /  29.5 °C 22.5 °F /  -5.3 °C 29.82in /  1009.7hPa NNE 4.9mph /  7.9km/h 11.0mph /  17.7km/h 10% 0.00in /  0mm 770.00 W/m2
09:44 84.9 °F /  29.4 °C 22.3 °F /  -5.4 °C 29.81in /  1009.4hPa NNW 2.9mph /  4.7km/h 9.0mph /  14.5km/h 10% 0.00in /  0mm 784.00 W/m2
09:49 84.9 °F /  29.4 °C 24.6 °F /  -4.1 °C 29.81in /  1009.4hPa NNW 4.0mph /  6.4km/h 9.0mph /  14.5km/h 11% 0.00in /  0mm 800.00 W/m2
09:54 85.3 °F /  29.6 °C 24.8 °F /  -4 °C 29.81in /  1009.4hPa North 6.0mph /  9.7km/h 12.0mph /  19.3km/h 11% 0.00in /  0mm 812.00 W/m2
09:59 85.6 °F /  29.8 °C 22.8 °F /  -5.1 °C 29.81in /  1009.4hPa North 4.9mph /  7.9km/h 8.0mph /  12.9km/h 10% 0.00in /  0mm 828.00 W/m2
10:04 85.6 °F /  29.8 °C 22.8 °F /  -5.1 °C 29.81in /  1009.4hPa NE 4.9mph /  7.9km/h 6.0mph /  9.7km/h 10% 0.00in /  0mm 837.00 W/m2
10:09 85.8 °F /  29.9 °C 23.0 °F /  -5 °C 29.81in /  1009.4hPa NNE 8.1mph /  13km/h 11.0mph /  17.7km/h 10% 0.00in /  0mm 851.00 W/m2
10:14 86.2 °F /  30.1 °C 25.5 °F /  -3.6 °C 29.80in /  1009hPa NE 6.0mph /  9.7km/h 9.0mph /  14.5km/h 11% 0.00in /  0mm 865.00 W/m2
10:18 86.5 °F /  30.3 °C 23.5 °F /  -4.7 °C 29.80in /  1009hPa NNW 6.0mph /  9.7km/h 14.0mph /  22.5km/h 10% 0.00in /  0mm 875.00 W/m2
10:24 87.1 °F /  30.6 °C 23.9 °F /  -4.5 °C 29.80in /  1009hPa NNE 4.0mph /  6.4km/h 8.0mph /  12.9km/h 10% 0.00in /  0mm 889.00 W/m2
10:29 87.3 °F /  30.7 °C 21.6 °F /  -5.8 °C 29.80in /  1009hPa NNE 4.9mph /  7.9km/h 12.0mph /  19.3km/h 9% 0.00in /  0mm 902.00 W/m2
10:34 87.3 °F /  30.7 °C 24.1 °F /  -4.4 °C 29.80in /  1009hPa East 2.0mph /  3.2km/h 5.0mph /  8km/h 10% 0.00in /  0mm 912.00 W/m2
10:38 87.6 °F /  30.9 °C 21.7 °F /  -5.7 °C 29.80in /  1009hPa NE 6.0mph /  9.7km/h 9.0mph /  14.5km/h 9% 0.00in /  0mm 923.00 W/m2
10:43 88.0 °F /  31.1 °C 24.6 °F /  -4.1 °C 29.80in /  1009hPa ESE 2.0mph /  3.2km/h 7.0mph /  11.3km/h 10% 0.00in /  0mm 930.00 W/m2
10:48 88.5 °F /  31.4 °C 22.5 °F /  -5.3 °C 29.79in /  1008.7hPa ENE 6.9mph /  11.1km/h 8.0mph /  12.9km/h 9% 0.00in /  0mm 944.00 W/m2
10:54 88.9 °F /  31.6 °C 22.8 °F /  -5.1 °C 29.79in /  1008.7hPa NNE 2.9mph /  4.7km/h 7.0mph /  11.3km/h 9% 0.00in /  0mm 949.00 W/m2
10:59 89.1 °F /  31.7 °C 22.8 °F /  -5.1 °C 29.79in /  1008.7hPa NW 6.0mph /  9.7km/h 8.0mph /  12.9km/h 9% 0.00in /  0mm 963.00 W/m2
11:04 89.1 °F /  31.7 °C 22.8 °F /  -5.1 °C 29.79in /  1008.7hPa NNW 2.0mph /  3.2km/h 9.0mph /  14.5km/h 9% 0.00in /  0mm 972.00 W/m2
11:09 89.2 °F /  31.8 °C 23.0 °F /  -5 °C 29.79in /  1008.7hPa ESE 2.9mph /  4.7km/h 5.0mph /  8km/h 9% 0.00in /  0mm 979.00 W/m2
11:14 90.0 °F /  32.2 °C 23.5 °F /  -4.7 °C 29.79in /  1008.7hPa NE 4.9mph /  7.9km/h 11.0mph /  17.7km/h 9% 0.00in /  0mm 986.00 W/m2
11:19 90.1 °F /  32.3 °C 23.7 °F /  -4.6 °C 29.79in /  1008.7hPa NE 4.0mph /  6.4km/h 11.0mph /  17.7km/h 9% 0.00in /  0mm 993.00 W/m2
11:24 90.3 °F /  32.4 °C 23.9 °F /  -4.5 °C 29.79in /  1008.7hPa ENE 2.0mph /  3.2km/h 5.0mph /  8km/h 9% 0.00in /  0mm 1002.00 W/m2
11:29 90.3 °F /  32.4 °C 23.9 °F /  -4.5 °C 29.78in /  1008.4hPa SE 2.9mph /  4.7km/h 12.0mph /  19.3km/h 9% 0.00in /  0mm 1009.00 W/m2
11:34 90.7 °F /  32.6 °C 24.1 °F /  -4.4 °C 29.78in /  1008.4hPa Calm   7.0mph /  11.3km/h 9% 0.00in /  0mm 1009.00 W/m2
11:38 90.9 °F /  32.7 °C 24.3 °F /  -4.3 °C 29.78in /  1008.4hPa NW 2.9mph /  4.7km/h 8.0mph /  12.9km/h 9% 0.00in /  0mm 1013.00 W/m2
11:43 91.0 °F /  32.8 °C 24.4 °F /  -4.2 °C 29.78in /  1008.4hPa ENE 2.0mph /  3.2km/h 7.0mph /  11.3km/h 9% 0.00in /  0mm 1020.00 W/m2
11:49 91.4 °F /  33 °C 24.6 °F /  -4.1 °C 29.78in /  1008.4hPa NNE 8.1mph /  13km/h 8.0mph /  12.9km/h 9% 0.00in /  0mm 1025.00 W/m2
11:54 91.2 °F /  32.9 °C 24.4 °F /  -4.2 °C 29.77in /  1008hPa NNE 4.0mph /  6.4km/h 8.0mph /  12.9km/h 9% 0.00in /  0mm 1030.00 W/m2
11:59 91.2 °F /  32.9 °C 24.4 °F /  -4.2 °C 29.77in /  1008hPa ENE 4.9mph /  7.9km/h 12.0mph /  19.3km/h 9% 0.00in /  0mm 1032.00 W/m2
12:04 91.6 °F /  33.1 °C 21.9 °F /  -5.6 °C 29.77in /  1008hPa East 4.9mph /  7.9km/h 8.0mph /  12.9km/h 8% 0.00in /  0mm 1037.00 W/m2
12:09 91.4 °F /  33 °C 21.9 °F /  -5.6 °C 29.77in /  1008hPa SSE 2.0mph /  3.2km/h 10.0mph /  16.1km/h 8% 0.00in /  0mm 1039.00 W/m2
12:14 91.6 °F /  33.1 °C 21.9 °F /  -5.6 °C 29.77in /  1008hPa North 2.0mph /  3.2km/h 7.0mph /  11.3km/h 8% 0.00in /  0mm 1039.00 W/m2
12:19 91.9 °F /  33.3 °C 22.3 °F /  -5.4 °C 29.77in /  1008hPa NNE 6.9mph /  11.1km/h 11.0mph /  17.7km/h 8% 0.00in /  0mm 1046.00 W/m2
12:23 91.8 °F /  33.2 °C 22.1 °F /  -5.5 °C 29.76in /  1007.7hPa NNW 2.9mph /  4.7km/h 6.0mph /  9.7km/h 8% 0.00in /  0mm 1042.00 W/m2
12:29 91.8 °F /  33.2 °C 22.1 °F /  -5.5 °C 29.76in /  1007.7hPa NNW 2.9mph /  4.7km/h 4.0mph /  6.4km/h 8% 0.00in /  0mm 1046.00 W/m2
12:34 91.8 °F /  33.2 °C 22.1 °F /  -5.5 °C 29.76in /  1007.7hPa ENE 2.0mph /  3.2km/h 10.0mph /  16.1km/h 8% 0.00in /  0mm 1041.00 W/m2
12:39 92.3 °F /  33.5 °C 22.5 °F /  -5.3 °C 29.76in /  1007.7hPa ENE 8.1mph /  13km/h 9.0mph /  14.5km/h 8% 0.00in /  0mm 1037.00 W/m2
12:44 92.7 °F /  33.7 °C 22.8 °F /  -5.1 °C 29.76in /  1007.7hPa NNW 2.9mph /  4.7km/h 11.0mph /  17.7km/h 8% 0.00in /  0mm 1051.00 W/m2
12:49 92.5 °F /  33.6 °C 22.6 °F /  -5.2 °C 29.75in /  1007.3hPa NNW 2.9mph /  4.7km/h 3.0mph /  4.8km/h 8% 0.00in /  0mm 1046.00 W/m2
12:54 92.7 °F /  33.7 °C 22.8 °F /  -5.1 °C 29.75in /  1007.3hPa NE 4.0mph /  6.4km/h 9.0mph /  14.5km/h 8% 0.00in /  0mm 1053.00 W/m2
12:59 92.7 °F /  33.7 °C 22.8 °F /  -5.1 °C 29.75in /  1007.3hPa NNW 2.0mph /  3.2km/h 7.0mph /  11.3km/h 8% 0.00in /  0mm 1049.00 W/m2
13:04 92.8 °F /  33.8 °C 23.0 °F /  -5 °C 29.74in /  1007hPa SW 2.0mph /  3.2km/h 3.0mph /  4.8km/h 8% 0.00in /  0mm 1055.00 W/m2
13:08 93.0 °F /  33.9 °C 23.0 °F /  -5 °C 29.74in /  1007hPa Calm   3.0mph /  4.8km/h 8% 0.00in /  0mm 1058.00 W/m2
13:14 93.6 °F /  34.2 °C 23.4 °F /  -4.8 °C 29.74in /  1007hPa NE 2.0mph /  3.2km/h 10.0mph /  16.1km/h 8% 0.00in /  0mm 1118.00 W/m2
13:19 93.6 °F /  34.2 °C 23.4 °F /  -4.8 °C 29.74in /  1007hPa NE 8.1mph /  13km/h 8.0mph /  12.9km/h 8% 0.00in /  0mm 135.00 W/m2
13:24 92.5 °F /  33.6 °C 22.6 °F /  -5.2 °C 29.74in /  1007hPa NNW 6.9mph /  11.1km/h 13.0mph /  20.9km/h 8% 0.00in /  0mm 176.00 W/m2
13:29 91.9 °F /  33.3 °C 22.3 °F /  -5.4 °C 29.74in /  1007hPa Calm   5.0mph /  8km/h 8% 0.00in /  0mm 1060.00 W/m2
13:34 92.1 °F /  33.4 °C 25.2 °F /  -3.8 °C 29.72in /  1006.3hPa WSW 0.9mph /  1.4km/h 4.0mph /  6.4km/h 9% 0.00in /  0mm 1039.00 W/m2
13:39 92.8 °F /  33.8 °C 23.0 °F /  -5 °C 29.72in /  1006.3hPa ESE 2.0mph /  3.2km/h 6.0mph /  9.7km/h 8% 0.00in /  0mm 1032.00 W/m2
13:44 93.4 °F /  34.1 °C 23.4 °F /  -4.8 °C 29.72in /  1006.3hPa SE 4.0mph /  6.4km/h 10.0mph /  16.1km/h 8% 0.00in /  0mm 1028.00 W/m2
13:49 94.1 °F /  34.5 °C 23.9 °F /  -4.5 °C 29.72in /  1006.3hPa NE 6.9mph /  11.1km/h 10.0mph /  16.1km/h 8% 0.00in /  0mm 1037.00 W/m2
13:54 94.3 °F /  34.6 °C 20.8 °F /  -6.2 °C 29.72in /  1006.3hPa Calm   5.0mph /  8km/h 7% 0.00in /  0mm 1048.00 W/m2
13:59 94.5 °F /  34.7 °C 21.0 °F /  -6.1 °C 29.72in /  1006.3hPa North 2.0mph /  3.2km/h 6.0mph /  9.7km/h 7% 0.00in /  0mm 1062.00 W/m2
14:04 94.6 °F /  34.8 °C 24.3 °F /  -4.3 °C 29.71in /  1006hPa WSW 4.0mph /  6.4km/h 4.0mph /  6.4km/h 8% 0.00in /  0mm 1088.00 W/m2
14:09 94.6 °F /  34.8 °C 21.0 °F /  -6.1 °C 29.71in /  1006hPa West 6.9mph /  11.1km/h 11.0mph /  17.7km/h 7% 0.00in /  0mm 1106.00 W/m2
14:14 93.7 °F /  34.3 °C 23.5 °F /  -4.7 °C 29.71in /  1006hPa ENE 8.1mph /  13km/h 8.0mph /  12.9km/h 8% 0.00in /  0mm 225.00 W/m2
14:19 92.8 °F /  33.8 °C 23.0 °F /  -5 °C 29.71in /  1006hPa NE 4.9mph /  7.9km/h 9.0mph /  14.5km/h 8% 0.00in /  0mm 211.00 W/m2
14:24 92.1 °F /  33.4 °C 22.5 °F /  -5.3 °C 29.71in /  1006hPa NNE 6.9mph /  11.1km/h 11.0mph /  17.7km/h 8% 0.00in /  0mm 207.00 W/m2
14:29 91.0 °F /  32.8 °C 21.6 °F /  -5.8 °C 29.71in /  1006hPa North 0.9mph /  1.4km/h 6.0mph /  9.7km/h 8% 0.00in /  0mm 220.00 W/m2
14:34 90.9 °F /  32.7 °C 21.4 °F /  -5.9 °C 29.70in /  1005.6hPa SE 0.9mph /  1.4km/h 4.0mph /  6.4km/h 8% 0.00in /  0mm 195.00 W/m2
14:39 90.3 °F /  32.4 °C 23.9 °F /  -4.5 °C 29.70in /  1005.6hPa Calm   3.0mph /  4.8km/h 9% 0.00in /  0mm 197.00 W/m2
14:44 90.0 °F /  32.2 °C 23.5 °F /  -4.7 °C 29.70in /  1005.6hPa WNW 2.0mph /  3.2km/h 3.0mph /  4.8km/h 9% 0.00in /  0mm 230.00 W/m2
14:48 90.3 °F /  32.4 °C 23.9 °F /  -4.5 °C 29.70in /  1005.6hPa NW 4.0mph /  6.4km/h 4.0mph /  6.4km/h 9% 0.00in /  0mm 972.00 W/m2
14:54 91.2 °F /  32.9 °C 21.7 °F /  -5.7 °C 29.70in /  1005.6hPa NNW 4.9mph /  7.9km/h 7.0mph /  11.3km/h 8% 0.00in /  0mm 974.00 W/m2
14:59 92.5 °F /  33.6 °C 22.6 °F /  -5.2 °C 29.69in /  1005.3hPa West 2.0mph /  3.2km/h 5.0mph /  8km/h 8% 0.00in /  0mm 984.00 W/m2
15:04 93.4 °F /  34.1 °C 23.4 °F /  -4.8 °C 29.69in /  1005.3hPa ENE 6.9mph /  11.1km/h 9.0mph /  14.5km/h 8% 0.00in /  0mm 1000.00 W/m2
15:09 93.6 °F /  34.2 °C 20.3 °F /  -6.5 °C 29.69in /  1005.3hPa NE 2.0mph /  3.2km/h 8.0mph /  12.9km/h 7% 0.00in /  0mm 352.00 W/m2
15:14 93.4 °F /  34.1 °C 20.1 °F /  -6.6 °C 29.69in /  1005.3hPa South 2.9mph /  4.7km/h 5.0mph /  8km/h 7% 0.00in /  0mm 972.00 W/m2
15:19 93.0 °F /  33.9 °C 23.0 °F /  -5 °C 29.68in /  1005hPa WSW 0.9mph /  1.4km/h 4.0mph /  6.4km/h 8% 0.00in /  0mm 960.00 W/m2
15:24 93.0 °F /  33.9 °C 23.0 °F /  -5 °C 29.68in /  1005hPa WSW 0.9mph /  1.4km/h 4.0mph /  6.4km/h 8% 0.00in /  0mm 942.00 W/m2
15:29 93.6 °F /  34.2 °C 23.4 °F /  -4.8 °C 29.68in /  1005hPa East 8.1mph /  13km/h 8.0mph /  12.9km/h 8% 0.00in /  0mm 893.00 W/m2
15:34 94.6 °F /  34.8 °C 21.0 °F /  -6.1 °C 29.68in /  1005hPa ENE 4.9mph /  7.9km/h 7.0mph /  11.3km/h 7% 0.00in /  0mm 872.00 W/m2
15:38 95.4 °F /  35.2 °C 21.6 °F /  -5.8 °C 29.68in /  1005hPa SE 4.0mph /  6.4km/h 9.0mph /  14.5km/h 7% 0.00in /  0mm 868.00 W/m2
15:44 95.4 °F /  35.2 °C 21.6 °F /  -5.8 °C 29.68in /  1005hPa ENE 2.0mph /  3.2km/h 3.0mph /  4.8km/h 7% 0.00in /  0mm 216.00 W/m2
15:49 94.8 °F /  34.9 °C 21.2 °F /  -6 °C 29.68in /  1005hPa ENE 4.0mph /  6.4km/h 6.0mph /  9.7km/h 7% 0.00in /  0mm 218.00 W/m2
15:54 94.1 °F /  34.5 °C 20.7 °F /  -6.3 °C 29.68in /  1005hPa NNE 2.0mph /  3.2km/h 4.0mph /  6.4km/h 7% 0.00in /  0mm 202.00 W/m2
15:59 93.6 °F /  34.2 °C 20.3 °F /  -6.5 °C 29.68in /  1005hPa NNW 2.9mph /  4.7km/h 7.0mph /  11.3km/h 7% 0.00in /  0mm 202.00 W/m2
16:04 93.0 °F /  33.9 °C 19.9 °F /  -6.7 °C 29.68in /  1005hPa NNW 2.0mph /  3.2km/h 3.0mph /  4.8km/h 7% 0.00in /  0mm 213.00 W/m2
16:09 92.7 °F /  33.7 °C 22.8 °F /  -5.1 °C 29.68in /  1005hPa ESE 0.9mph /  1.4km/h 4.0mph /  6.4km/h 8% 0.00in /  0mm 225.00 W/m2
16:14 92.3 °F /  33.5 °C 22.5 °F /  -5.3 °C 29.68in /  1005hPa NE 4.0mph /  6.4km/h 9.0mph /  14.5km/h 8% 0.00in /  0mm 223.00 W/m2
16:18 91.9 °F /  33.3 °C 22.3 °F /  -5.4 °C 29.68in /  1005hPa NE 2.9mph /  4.7km/h 6.0mph /  9.7km/h 8% 0.00in /  0mm 221.00 W/m2
16:23 91.8 °F /  33.2 °C 22.1 °F /  -5.5 °C 29.68in /  1005hPa NNE 6.0mph /  9.7km/h 7.0mph /  11.3km/h 8% 0.00in /  0mm 673.00 W/m2
16:29 91.9 °F /  33.3 °C 22.3 °F /  -5.4 °C 29.68in /  1005hPa NNE 0.9mph /  1.4km/h 3.0mph /  4.8km/h 8% 0.00in /  0mm 677.00 W/m2
16:34 92.5 °F /  33.6 °C 22.6 °F /  -5.2 °C 29.67in /  1004.6hPa NE 2.9mph /  4.7km/h 3.0mph /  4.8km/h 8% 0.00in /  0mm 642.00 W/m2
16:39 92.7 °F /  33.7 °C 22.8 °F /  -5.1 °C 29.67in /  1004.6hPa ENE 2.9mph /  4.7km/h 7.0mph /  11.3km/h 8% 0.00in /  0mm 190.00 W/m2
16:44 92.7 °F /  33.7 °C 25.5 °F /  -3.6 °C 29.67in /  1004.6hPa ESE 4.0mph /  6.4km/h 4.0mph /  6.4km/h 9% 0.00in /  0mm 162.00 W/m2
16:49 92.5 °F /  33.6 °C 22.6 °F /  -5.2 °C 29.67in /  1004.6hPa Calm   4.0mph /  6.4km/h 8% 0.00in /  0mm 149.00 W/m2
16:54 91.9 °F /  33.3 °C 22.3 °F /  -5.4 °C 29.67in /  1004.6hPa NE 4.9mph /  7.9km/h 8.0mph /  12.9km/h 8% 0.00in /  0mm 148.00 W/m2
16:59 91.6 °F /  33.1 °C 21.9 °F /  -5.6 °C 29.67in /  1004.6hPa SE 2.0mph /  3.2km/h 6.0mph /  9.7km/h 8% 0.00in /  0mm 135.00 W/m2
17:04 91.0 °F /  32.8 °C 21.6 °F /  -5.8 °C 29.67in /  1004.6hPa ESE 2.9mph /  4.7km/h 6.0mph /  9.7km/h 8% 0.00in /  0mm 123.00 W/m2
17:09 90.9 °F /  32.7 °C 21.4 °F /  -5.9 °C 29.67in /  1004.6hPa Calm   2.0mph /  3.2km/h 8% 0.00in /  0mm 128.00 W/m2
17:14 90.7 °F /  32.6 °C 21.4 °F /  -5.9 °C 29.67in /  1004.6hPa NE 2.9mph /  4.7km/h 4.0mph /  6.4km/h 8% 0.00in /  0mm 132.00 W/m2
17:19 90.3 °F /  32.4 °C 21.0 °F /  -6.1 °C 29.67in /  1004.6hPa ESE 6.0mph /  9.7km/h 6.0mph /  9.7km/h 8% 0.00in /  0mm 123.00 W/m2
17:24 90.1 °F /  32.3 °C 20.8 °F /  -6.2 °C 29.67in /  1004.6hPa NNE 4.0mph /  6.4km/h 9.0mph /  14.5km/h 8% 0.00in /  0mm 123.00 W/m2
17:29 89.8 °F /  32.1 °C 23.4 °F /  -4.8 °C 29.67in /  1004.6hPa NNE 0.9mph /  1.4km/h 2.0mph /  3.2km/h 9% 0.00in /  0mm 123.00 W/m2
17:34 89.8 °F /  32.1 °C 20.7 °F /  -6.3 °C 29.67in /  1004.6hPa NNE 2.0mph /  3.2km/h 4.0mph /  6.4km/h 8% 0.00in /  0mm 116.00 W/m2
17:39 89.6 °F /  32 °C 20.5 °F /  -6.4 °C 29.67in /  1004.6hPa NE 2.0mph /  3.2km/h 4.0mph /  6.4km/h 8% 0.00in /  0mm 113.00 W/m2
17:44 89.4 °F /  31.9 °C 20.3 °F /  -6.5 °C 29.67in /  1004.6hPa SE 2.0mph /  3.2km/h 6.0mph /  9.7km/h 8% 0.00in /  0mm 105.00 W/m2
17:49 89.2 °F /  31.8 °C 20.3 °F /  -6.5 °C 29.67in /  1004.6hPa SE 6.9mph /  11.1km/h 8.0mph /  12.9km/h 8% 0.00in /  0mm 102.00 W/m2
17:54 89.1 °F /  31.7 °C 20.1 °F /  -6.6 °C 29.67in /  1004.6hPa Calm   2.0mph /  3.2km/h 8% 0.00in /  0mm 97.00 W/m2
17:59 88.9 °F /  31.6 °C 19.9 °F /  -6.7 °C 29.67in /  1004.6hPa Calm   1.0mph /  1.6km/h 8% 0.00in /  0mm 90.00 W/m2
18:04 88.9 °F /  31.6 °C 19.9 °F /  -6.7 °C 29.67in /  1004.6hPa East 0.9mph /  1.4km/h 6.0mph /  9.7km/h 8% 0.00in /  0mm 83.00 W/m2
18:09 88.5 °F /  31.4 °C 19.8 °F /  -6.8 °C 29.67in /  1004.6hPa ENE 0.9mph /  1.4km/h 7.0mph /  11.3km/h 8% 0.00in /  0mm 74.00 W/m2
18:14 88.5 °F /  31.4 °C 19.8 °F /  -6.8 °C 29.67in /  1004.6hPa ENE 0.9mph /  1.4km/h 5.0mph /  8km/h 8% 0.00in /  0mm 151.00 W/m2
18:19 88.5 °F /  31.4 °C 22.5 °F /  -5.3 °C 29.68in /  1005hPa NE 2.0mph /  3.2km/h 4.0mph /  6.4km/h 9% 0.00in /  0mm 56.00 W/m2
18:24 88.5 °F /  31.4 °C 19.8 °F /  -6.8 °C 29.68in /  1005hPa Calm   4.0mph /  6.4km/h 8% 0.00in /  0mm 104.00 W/m2
18:29 88.7 °F /  31.5 °C 19.9 °F /  -6.7 °C 29.68in /  1005hPa North 2.9mph /  4.7km/h 3.0mph /  4.8km/h 8% 0.00in /  0mm 49.00 W/m2
18:34 88.7 °F /  31.5 °C 22.6 °F /  -5.2 °C 29.68in /  1005hPa ENE 0.9mph /  1.4km/h 1.0mph /  1.6km/h 9% 0.00in /  0mm 42.00 W/m2
18:39 88.7 °F /  31.5 °C 22.6 °F /  -5.2 °C 29.68in /  1005hPa Calm   2.0mph /  3.2km/h 9% 0.00in /  0mm 33.00 W/m2
18:44 88.5 °F /  31.4 °C 19.8 °F /  -6.8 °C 29.68in /  1005hPa SE 2.0mph /  3.2km/h 8.0mph /  12.9km/h 8% 0.00in /  0mm 25.00 W/m2
18:48 88.2 °F /  31.2 °C 19.4 °F /  -7 °C 29.68in /  1005hPa SE 0.9mph /  1.4km/h 5.0mph /  8km/h 8% 0.00in /  0mm 21.00 W/m2
18:54 88.0 °F /  31.1 °C 22.1 °F /  -5.5 °C 29.68in /  1005hPa ESE 0.9mph /  1.4km/h 1.0mph /  1.6km/h 9% 0.00in /  0mm 16.00 W/m2
18:59 87.6 °F /  30.9 °C 21.7 °F /  -5.7 °C 29.68in /  1005hPa Calm   4.0mph /  6.4km/h 9% 0.00in /  0mm 14.00 W/m2
19:04 87.3 °F /  30.7 °C 21.6 °F /  -5.8 °C 29.68in /  1005hPa ESE 2.0mph /  3.2km/h 2.0mph /  3.2km/h 9% 0.00in /  0mm 9.00 W/m2
19:09 86.7 °F /  30.4 °C 21.2 °F /  -6 °C 29.68in /  1005hPa Calm     9% 0.00in /  0mm 0.00 W/m2
19:14 86.5 °F /  30.3 °C 21.0 °F /  -6.1 °C 29.68in /  1005hPa Calm   1.0mph /  1.6km/h 9% 0.00in /  0mm 0.00 W/m2
19:19 86.0 °F /  30 °C 23.2 °F /  -4.9 °C 29.69in /  1005.3hPa Calm   1.0mph /  1.6km/h 10% 0.00in /  0mm 0.00 W/m2
19:24 85.6 °F /  29.8 °C 22.8 °F /  -5.1 °C 29.69in /  1005.3hPa Calm   1.0mph /  1.6km/h 10% 0.00in /  0mm 0.00 W/m2
19:29 85.1 °F /  29.5 °C 22.5 °F /  -5.3 °C 29.69in /  1005.3hPa Calm     10% 0.00in /  0mm 0.00 W/m2
19:34 84.6 °F /  29.2 °C 21.9 °F /  -5.6 °C 29.69in /  1005.3hPa Calm   2.0mph /  3.2km/h 10% 0.00in /  0mm 0.00 W/m2
19:39 84.0 °F /  28.9 °C 21.6 °F /  -5.8 °C 29.69in /  1005.3hPa Calm   1.0mph /  1.6km/h 10% 0.00in /  0mm 0.00 W/m2
19:44 83.7 °F /  28.7 °C 21.4 °F /  -5.9 °C 29.69in /  1005.3hPa Calm   2.0mph /  3.2km/h 10% 0.00in /  0mm 0.00 W/m2
19:49 83.1 °F /  28.4 °C 23.2 °F /  -4.9 °C 29.70in /  1005.6hPa Calm   1.0mph /  1.6km/h 11% 0.00in /  0mm 0.00 W/m2
19:54 82.6 °F /  28.1 °C 22.8 °F /  -5.1 °C 29.70in /  1005.6hPa Calm   1.0mph /  1.6km/h 11% 0.00in /  0mm 0.00 W/m2
19:59 82.0 °F /  27.8 °C 22.3 °F /  -5.4 °C 29.70in /  1005.6hPa Calm     11% 0.00in /  0mm 0.00 W/m2
20:04 81.7 °F /  27.6 °C 24.1 °F /  -4.4 °C 29.70in /  1005.6hPa Calm     12% 0.00in /  0mm 0.00 W/m2
20:09 81.1 °F /  27.3 °C 21.6 °F /  -5.8 °C 29.70in /  1005.6hPa Calm   1.0mph /  1.6km/h 11% 0.00in /  0mm 0.00 W/m2
20:14 80.6 °F /  27 °C 21.2 °F /  -6 °C 29.71in /  1006hPa Calm     11% 0.00in /  0mm 0.00 W/m2
20:18 80.2 °F /  26.8 °C 23.0 °F /  -5 °C 29.71in /  1006hPa Calm     12% 0.00in /  0mm 0.00 W/m2
20:23 79.9 °F /  26.6 °C 22.8 °F /  -5.1 °C 29.71in /  1006hPa Calm   1.0mph /  1.6km/h 12% 0.00in /  0mm 0.00 W/m2
20:29 79.3 °F /  26.3 °C 22.3 °F /  -5.4 °C 29.71in /  1006hPa Calm   1.0mph /  1.6km/h 12% 0.00in /  0mm 0.00 W/m2
20:34 79.0 °F /  26.1 °C 22.1 °F /  -5.5 °C 29.72in /  1006.3hPa Calm   1.0mph /  1.6km/h 12% 0.00in /  0mm 0.00 W/m2
20:39 78.4 °F /  25.8 °C 21.6 °F /  -5.8 °C 29.71in /  1006hPa Calm   1.0mph /  1.6km/h 12% 0.00in /  0mm 0.00 W/m2
20:44 78.3 °F /  25.7 °C 21.6 °F /  -5.8 °C 29.71in /  1006hPa ESE 2.0mph /  3.2km/h 2.0mph /  3.2km/h 12% 0.00in /  0mm 0.00 W/m2
20:49 78.1 °F /  25.6 °C 21.4 °F /  -5.9 °C 29.72in /  1006.3hPa Calm   4.0mph /  6.4km/h 12% 0.00in /  0mm 0.00 W/m2
20:54 77.7 °F /  25.4 °C 23.0 °F /  -5 °C 29.72in /  1006.3hPa East 2.0mph /  3.2km/h 3.0mph /  4.8km/h 13% 0.00in /  0mm 0.00 W/m2
20:58 77.5 °F /  25.3 °C 22.8 °F /  -5.1 °C 29.72in /  1006.3hPa Calm   2.0mph /  3.2km/h 13% 0.00in /  0mm 0.00 W/m2
21:04 77.4 °F /  25.2 °C 22.6 °F /  -5.2 °C 29.72in /  1006.3hPa Calm   3.0mph /  4.8km/h 13% 0.00in /  0mm 0.00 W/m2
21:09 77.0 °F /  25 °C 22.5 °F /  -5.3 °C 29.72in /  1006.3hPa Calm   3.0mph /  4.8km/h 13% 0.00in /  0mm 0.00 W/m2
21:14 76.8 °F /  24.9 °C 22.3 °F /  -5.4 °C 29.72in /  1006.3hPa Calm   1.0mph /  1.6km/h 13% 0.00in /  0mm 0.00 W/m2
21:19 76.6 °F /  24.8 °C 23.9 °F /  -4.5 °C 29.72in /  1006.3hPa Calm   2.0mph /  3.2km/h 14% 0.00in /  0mm 0.00 W/m2
21:24 76.5 °F /  24.7 °C 23.7 °F /  -4.6 °C 29.72in /  1006.3hPa SE 0.9mph /  1.4km/h 3.0mph /  4.8km/h 14% 0.00in /  0mm 0.00 W/m2
21:29 76.3 °F /  24.6 °C 23.5 °F /  -4.7 °C 29.72in /  1006.3hPa Calm   2.0mph /  3.2km/h 14% 0.00in /  0mm 0.00 W/m2
21:34 76.1 °F /  24.5 °C 23.4 °F /  -4.8 °C 29.72in /  1006.3hPa SE 0.9mph /  1.4km/h 3.0mph /  4.8km/h 14% 0.00in /  0mm 0.00 W/m2
21:39 75.9 °F /  24.4 °C 23.4 °F /  -4.8 °C 29.72in /  1006.3hPa ESE 0.9mph /  1.4km/h 3.0mph /  4.8km/h 14% 0.00in /  0mm 0.00 W/m2
21:44 75.7 °F /  24.3 °C 23.2 °F /  -4.9 °C 29.73in /  1006.7hPa ESE 4.0mph /  6.4km/h 4.0mph /  6.4km/h 14% 0.00in /  0mm 0.00 W/m2
21:49 75.7 °F /  24.3 °C 23.2 °F /  -4.9 °C 29.73in /  1006.7hPa Calm   2.0mph /  3.2km/h 14% 0.00in /  0mm 0.00 W/m2
21:54 75.6 °F /  24.2 °C 23.0 °F /  -5 °C 29.73in /  1006.7hPa Calm   1.0mph /  1.6km/h 14% 0.00in /  0mm 0.00 W/m2
21:59 75.4 °F /  24.1 °C 22.8 °F /  -5.1 °C 29.73in /  1006.7hPa ESE 0.9mph /  1.4km/h 3.0mph /  4.8km/h 14% 0.00in /  0mm 0.00 W/m2
22:04 75.2 °F /  24 °C 22.6 °F /  -5.2 °C 29.73in /  1006.7hPa Calm   1.0mph /  1.6km/h 14% 0.00in /  0mm 0.00 W/m2
22:09 75.0 °F /  23.9 °C 22.6 °F /  -5.2 °C 29.74in /  1007hPa Calm   1.0mph /  1.6km/h 14% 0.00in /  0mm 0.00 W/m2
22:14 74.8 °F /  23.8 °C 22.5 °F /  -5.3 °C 29.74in /  1007hPa Calm   2.0mph /  3.2km/h 14% 0.00in /  0mm 0.00 W/m2
22:19 74.7 °F /  23.7 °C 22.3 °F /  -5.4 °C 29.74in /  1007hPa Calm   2.0mph /  3.2km/h 14% 0.00in /  0mm 0.00 W/m2
22:24 74.7 °F /  23.7 °C 22.3 °F /  -5.4 °C 29.74in /  1007hPa Calm   3.0mph /  4.8km/h 14% 0.00in /  0mm 0.00 W/m2
22:29 74.5 °F /  23.6 °C 22.1 °F /  -5.5 °C 29.74in /  1007hPa ESE 2.0mph /  3.2km/h 3.0mph /  4.8km/h 14% 0.00in /  0mm 0.00 W/m2
22:34 74.5 °F /  23.6 °C 22.1 °F /  -5.5 °C 29.74in /  1007hPa Calm   2.0mph /  3.2km/h 14% 0.00in /  0mm 0.00 W/m2
22:39 74.7 °F /  23.7 °C 22.3 °F /  -5.4 °C 29.74in /  1007hPa ESE 2.0mph /  3.2km/h 5.0mph /  8km/h 14% 0.00in /  0mm 0.00 W/m2
22:44 74.7 °F /  23.7 °C 22.3 °F /  -5.4 °C 29.74in /  1007hPa NE 2.0mph /  3.2km/h 3.0mph /  4.8km/h 14% 0.00in /  0mm 0.00 W/m2
22:49 74.8 °F /  23.8 °C 22.5 °F /  -5.3 °C 29.74in /  1007hPa Calm   3.0mph /  4.8km/h 14% 0.00in /  0mm 0.00 W/m2
22:54 74.8 °F /  23.8 °C 22.5 °F /  -5.3 °C 29.75in /  1007.3hPa Calm   1.0mph /  1.6km/h 14% 0.00in /  0mm 0.00 W/m2
22:59 74.8 °F /  23.8 °C 22.5 °F /  -5.3 °C 29.75in /  1007.3hPa Calm   2.0mph /  3.2km/h 14% 0.00in /  0mm 0.00 W/m2
Olympia, Windhoek, Namibia
Compliments of Weather Underground - 3.25 mb